sensor_id;sensor_type;location;lat;lon;timestamp;P1;durP1;ratioP1;P2;durP2;ratioP2
52432;SDS011;38352;53.244;6.594;2023-02-13T00:00:10;23.27;;;12.75;;
52432;SDS011;38352;53.244;6.594;2023-02-13T00:02:37;22.95;;;12.88;;
52432;SDS011;38352;53.244;6.594;2023-02-13T00:05:03;25.73;;;13.68;;
52432;SDS011;38352;53.244;6.594;2023-02-13T00:07:29;27.50;;;13.60;;
52432;SDS011;38352;53.244;6.594;2023-02-13T00:09:55;25.25;;;14.40;;
52432;SDS011;38352;53.244;6.594;2023-02-13T00:12:21;25.38;;;13.88;;
52432;SDS011;38352;53.244;6.594;2023-02-13T00:14:47;23.67;;;13.68;;
52432;SDS011;38352;53.244;6.594;2023-02-13T00:17:13;21.13;;;12.52;;
52432;SDS011;38352;53.244;6.594;2023-02-13T00:19:39;24.95;;;13.82;;
52432;SDS011;38352;53.244;6.594;2023-02-13T00:22:05;24.80;;;13.07;;
52432;SDS011;38352;53.244;6.594;2023-02-13T00:24:32;25.38;;;13.90;;
52432;SDS011;38352;53.244;6.594;2023-02-13T00:26:58;23.83;;;13.23;;
52432;SDS011;38352;53.244;6.594;2023-02-13T00:29:24;21.17;;;11.50;;
52432;SDS011;38352;53.244;6.594;2023-02-13T00:31:50;24.58;;;13.70;;
52432;SDS011;38352;53.244;6.594;2023-02-13T00:34:16;25.08;;;14.05;;
52432;SDS011;38352;53.244;6.594;2023-02-13T00:36:42;26.60;;;13.95;;
52432;SDS011;38352;53.244;6.594;2023-02-13T00:39:10;24.52;;;13.93;;
52432;SDS011;38352;53.244;6.594;2023-02-13T00:41:37;27.17;;;14.23;;
52432;SDS011;38352;53.244;6.594;2023-02-13T00:44:03;24.80;;;13.23;;
52432;SDS011;38352;53.244;6.594;2023-02-13T00:46:29;25.50;;;13.60;;
52432;SDS011;38352;53.244;6.594;2023-02-13T00:48:55;25.23;;;13.23;;
52432;SDS011;38352;53.244;6.594;2023-02-13T00:51:21;24.40;;;14.18;;
52432;SDS011;38352;53.244;6.594;2023-02-13T00:53:47;24.65;;;13.13;;
52432;SDS011;38352;53.244;6.594;2023-02-13T00:56:13;25.80;;;14.27;;
52432;SDS011;38352;53.244;6.594;2023-02-13T00:58:39;24.67;;;13.43;;
52432;SDS011;38352;53.244;6.594;2023-02-13T01:01:06;25.52;;;13.57;;
52432;SDS011;38352;53.244;6.594;2023-02-13T01:03:32;28.38;;;13.65;;
52432;SDS011;38352;53.244;6.594;2023-02-13T01:05:58;28.95;;;14.68;;
52432;SDS011;38352;53.244;6.594;2023-02-13T01:08:24;28.63;;;15.20;;
52432;SDS011;38352;53.244;6.594;2023-02-13T01:10:52;26.75;;;14.70;;
52432;SDS011;38352;53.244;6.594;2023-02-13T01:13:19;25.80;;;13.13;;
52432;SDS011;38352;53.244;6.594;2023-02-13T01:15:45;23.83;;;12.98;;
52432;SDS011;38352;53.244;6.594;2023-02-13T01:18:13;23.90;;;12.85;;
52432;SDS011;38352;53.244;6.594;2023-02-13T01:20:40;25.17;;;13.13;;
52432;SDS011;38352;53.244;6.594;2023-02-13T01:23:06;24.38;;;13.82;;
52432;SDS011;38352;53.244;6.594;2023-02-13T01:25:32;25.30;;;13.93;;
52432;SDS011;38352;53.244;6.594;2023-02-13T01:27:58;25.35;;;12.48;;
52432;SDS011;38352;53.244;6.594;2023-02-13T01:30:24;22.92;;;13.40;;
52432;SDS011;38352;53.244;6.594;2023-02-13T01:32:50;25.48;;;14.27;;
52432;SDS011;38352;53.244;6.594;2023-02-13T01:35:16;24.50;;;13.48;;
52432;SDS011;38352;53.244;6.594;2023-02-13T01:37:42;25.38;;;13.63;;
52432;SDS011;38352;53.244;6.594;2023-02-13T01:40:10;27.70;;;13.82;;
52432;SDS011;38352;53.244;6.594;2023-02-13T01:42:37;28.42;;;14.13;;
52432;SDS011;38352;53.244;6.594;2023-02-13T01:45:04;25.83;;;13.82;;
52432;SDS011;38352;53.244;6.594;2023-02-13T01:47:37;23.55;;;13.50;;
52432;SDS011;38352;53.244;6.594;2023-02-13T01:52:39;23.75;;;12.90;;
52432;SDS011;38352;53.244;6.594;2023-02-13T01:55:06;24.15;;;13.45;;
52432;SDS011;38352;53.244;6.594;2023-02-13T01:57:32;23.55;;;14.25;;
52432;SDS011;38352;53.244;6.594;2023-02-13T02:00:00;24.92;;;13.88;;
52432;SDS011;38352;53.244;6.594;2023-02-13T02:02:28;23.20;;;13.13;;
52432;SDS011;38352;53.244;6.594;2023-02-13T02:04:56;24.98;;;14.15;;
52432;SDS011;38352;53.244;6.594;2023-02-13T02:07:23;24.40;;;14.40;;
52432;SDS011;38352;53.244;6.594;2023-02-13T02:09:50;26.13;;;14.10;;
52432;SDS011;38352;53.244;6.594;2023-02-13T02:12:35;24.92;;;14.23;;
52432;SDS011;38352;53.244;6.594;2023-02-13T02:15:04;25.23;;;13.10;;
52432;SDS011;38352;53.244;6.594;2023-02-13T02:17:30;26.95;;;14.40;;
52432;SDS011;38352;53.244;6.594;2023-02-13T02:32:52;28.70;;;14.45;;
52432;SDS011;38352;53.244;6.594;2023-02-13T02:40:25;26.25;;;14.80;;
52432;SDS011;38352;53.244;6.594;2023-02-13T02:51:07;26.98;;;13.88;;
52432;SDS011;38352;53.244;6.594;2023-02-13T02:58:55;29.88;;;14.82;;
52432;SDS011;38352;53.244;6.594;2023-02-13T03:01:40;25.40;;;13.85;;
52432;SDS011;38352;53.244;6.594;2023-02-13T03:04:28;24.25;;;13.70;;
52432;SDS011;38352;53.244;6.594;2023-02-13T03:07:15;27.38;;;15.35;;
52432;SDS011;38352;53.244;6.594;2023-02-13T03:09:42;25.23;;;14.68;;
52432;SDS011;38352;53.244;6.594;2023-02-13T03:12:37;27.63;;;15.00;;
52432;SDS011;38352;53.244;6.594;2023-02-13T03:15:22;27.92;;;15.35;;
52432;SDS011;38352;53.244;6.594;2023-02-13T03:17:50;26.45;;;15.00;;
52432;SDS011;38352;53.244;6.594;2023-02-13T03:20:45;24.50;;;14.90;;
52432;SDS011;38352;53.244;6.594;2023-02-13T03:26:09;25.58;;;14.38;;
52432;SDS011;38352;53.244;6.594;2023-02-13T03:28:40;27.25;;;14.13;;
52432;SDS011;38352;53.244;6.594;2023-02-13T03:33:54;26.15;;;14.50;;
52432;SDS011;38352;53.244;6.594;2023-02-13T03:39:23;31.13;;;14.70;;
52432;SDS011;38352;53.244;6.594;2023-02-13T03:42:10;27.08;;;13.93;;
52432;SDS011;38352;53.244;6.594;2023-02-13T03:47:03;27.35;;;13.98;;
52432;SDS011;38352;53.244;6.594;2023-02-13T03:49:35;28.90;;;14.75;;
52432;SDS011;38352;53.244;6.594;2023-02-13T03:52:25;26.70;;;13.90;;
52432;SDS011;38352;53.244;6.594;2023-02-13T03:55:02;25.80;;;15.00;;
52432;SDS011;38352;53.244;6.594;2023-02-13T03:57:48;29.65;;;13.57;;
52432;SDS011;38352;53.244;6.594;2023-02-13T04:00:42;26.58;;;13.90;;
52432;SDS011;38352;53.244;6.594;2023-02-13T04:05:39;25.70;;;15.18;;
52432;SDS011;38352;53.244;6.594;2023-02-13T04:08:06;25.60;;;14.30;;
52432;SDS011;38352;53.244;6.594;2023-02-13T04:10:33;28.63;;;15.70;;
52432;SDS011;38352;53.244;6.594;2023-02-13T04:17:55;27.00;;;13.75;;
52432;SDS011;38352;53.244;6.594;2023-02-13T04:20:26;30.30;;;15.30;;
52432;SDS011;38352;53.244;6.594;2023-02-13T04:22:52;28.17;;;14.35;;
52432;SDS011;38352;53.244;6.594;2023-02-13T04:25:18;28.40;;;14.73;;
52432;SDS011;38352;53.244;6.594;2023-02-13T04:27:45;27.52;;;14.23;;
52432;SDS011;38352;53.244;6.594;2023-02-13T04:30:11;30.75;;;14.90;;
52432;SDS011;38352;53.244;6.594;2023-02-13T04:32:37;27.42;;;14.15;;
52432;SDS011;38352;53.244;6.594;2023-02-13T04:35:03;26.75;;;14.93;;
52432;SDS011;38352;53.244;6.594;2023-02-13T04:37:30;25.38;;;13.38;;
52432;SDS011;38352;53.244;6.594;2023-02-13T04:39:56;26.55;;;14.90;;
52432;SDS011;38352;53.244;6.594;2023-02-13T04:42:22;28.80;;;15.23;;
52432;SDS011;38352;53.244;6.594;2023-02-13T04:44:48;26.38;;;13.90;;
52432;SDS011;38352;53.244;6.594;2023-02-13T04:47:14;25.08;;;14.10;;
52432;SDS011;38352;53.244;6.594;2023-02-13T04:49:40;24.17;;;14.00;;
52432;SDS011;38352;53.244;6.594;2023-02-13T04:52:06;27.23;;;13.98;;
52432;SDS011;38352;53.244;6.594;2023-02-13T04:54:32;24.65;;;13.50;;
52432;SDS011;38352;53.244;6.594;2023-02-13T04:56:58;26.73;;;13.93;;
52432;SDS011;38352;53.244;6.594;2023-02-13T04:59:24;27.45;;;15.23;;
52432;SDS011;38352;53.244;6.594;2023-02-13T05:01:50;27.52;;;14.88;;
52432;SDS011;38352;53.244;6.594;2023-02-13T05:04:17;29.50;;;15.52;;
52432;SDS011;38352;53.244;6.594;2023-02-13T05:06:43;28.98;;;14.82;;
52432;SDS011;38352;53.244;6.594;2023-02-13T05:09:09;29.42;;;14.95;;
52432;SDS011;38352;53.244;6.594;2023-02-13T05:11:35;25.38;;;14.40;;
52432;SDS011;38352;53.244;6.594;2023-02-13T05:14:01;27.30;;;14.10;;
52432;SDS011;38352;53.244;6.594;2023-02-13T05:16:27;25.50;;;15.05;;
52432;SDS011;38352;53.244;6.594;2023-02-13T05:18:53;27.23;;;14.40;;
52432;SDS011;38352;53.244;6.594;2023-02-13T05:21:20;28.70;;;14.45;;
52432;SDS011;38352;53.244;6.594;2023-02-13T05:24:04;25.85;;;14.10;;
52432;SDS011;38352;53.244;6.594;2023-02-13T05:26:31;27.92;;;15.40;;
52432;SDS011;38352;53.244;6.594;2023-02-13T05:28:57;29.85;;;15.18;;
52432;SDS011;38352;53.244;6.594;2023-02-13T05:31:41;29.98;;;15.15;;
52432;SDS011;38352;53.244;6.594;2023-02-13T05:34:07;26.25;;;14.85;;
52432;SDS011;38352;53.244;6.594;2023-02-13T05:36:33;26.80;;;15.07;;
52432;SDS011;38352;53.244;6.594;2023-02-13T05:38:59;24.38;;;14.25;;
52432;SDS011;38352;53.244;6.594;2023-02-13T05:41:25;29.38;;;14.63;;
52432;SDS011;38352;53.244;6.594;2023-02-13T05:43:51;29.60;;;15.43;;
52432;SDS011;38352;53.244;6.594;2023-02-13T05:46:18;32.05;;;15.07;;
52432;SDS011;38352;53.244;6.594;2023-02-13T05:48:44;27.30;;;15.38;;
52432;SDS011;38352;53.244;6.594;2023-02-13T05:51:10;29.05;;;15.98;;
52432;SDS011;38352;53.244;6.594;2023-02-13T05:53:36;27.73;;;14.80;;
52432;SDS011;38352;53.244;6.594;2023-02-13T05:56:03;32.28;;;15.38;;
52432;SDS011;38352;53.244;6.594;2023-02-13T05:58:30;28.27;;;14.80;;
52432;SDS011;38352;53.244;6.594;2023-02-13T06:00:56;29.70;;;16.00;;
52432;SDS011;38352;53.244;6.594;2023-02-13T06:03:23;29.52;;;16.05;;
52432;SDS011;38352;53.244;6.594;2023-02-13T06:05:49;26.90;;;14.50;;
52432;SDS011;38352;53.244;6.594;2023-02-13T06:08:15;28.10;;;15.38;;
52432;SDS011;38352;53.244;6.594;2023-02-13T06:10:41;28.48;;;15.57;;
52432;SDS011;38352;53.244;6.594;2023-02-13T06:13:07;27.02;;;15.25;;
52432;SDS011;38352;53.244;6.594;2023-02-13T06:15:34;27.45;;;14.70;;
52432;SDS011;38352;53.244;6.594;2023-02-13T06:18:00;27.60;;;13.73;;
52432;SDS011;38352;53.244;6.594;2023-02-13T06:20:26;27.38;;;16.15;;
52432;SDS011;38352;53.244;6.594;2023-02-13T06:22:52;27.30;;;14.80;;
52432;SDS011;38352;53.244;6.594;2023-02-13T06:25:18;28.75;;;14.90;;
52432;SDS011;38352;53.244;6.594;2023-02-13T06:27:44;33.10;;;15.13;;
52432;SDS011;38352;53.244;6.594;2023-02-13T06:30:10;26.83;;;13.93;;
52432;SDS011;38352;53.244;6.594;2023-02-13T06:32:37;29.83;;;16.50;;
52432;SDS011;38352;53.244;6.594;2023-02-13T06:35:03;30.38;;;15.98;;
52432;SDS011;38352;53.244;6.594;2023-02-13T06:37:29;29.05;;;16.23;;
52432;SDS011;38352;53.244;6.594;2023-02-13T06:39:55;29.75;;;15.68;;
52432;SDS011;38352;53.244;6.594;2023-02-13T06:42:21;31.08;;;16.27;;
52432;SDS011;38352;53.244;6.594;2023-02-13T06:44:47;27.90;;;15.43;;
52432;SDS011;38352;53.244;6.594;2023-02-13T06:47:13;27.23;;;15.38;;
52432;SDS011;38352;53.244;6.594;2023-02-13T06:49:39;29.55;;;14.77;;
52432;SDS011;38352;53.244;6.594;2023-02-13T06:52:05;29.27;;;14.93;;
52432;SDS011;38352;53.244;6.594;2023-02-13T06:54:31;29.02;;;14.63;;
52432;SDS011;38352;53.244;6.594;2023-02-13T06:56:58;32.45;;;15.95;;
52432;SDS011;38352;53.244;6.594;2023-02-13T06:59:24;29.15;;;15.15;;
52432;SDS011;38352;53.244;6.594;2023-02-13T07:01:50;30.02;;;15.40;;
52432;SDS011;38352;53.244;6.594;2023-02-13T07:04:16;30.02;;;15.45;;
52432;SDS011;38352;53.244;6.594;2023-02-13T07:06:42;30.13;;;15.63;;
52432;SDS011;38352;53.244;6.594;2023-02-13T07:09:08;27.23;;;15.25;;
52432;SDS011;38352;53.244;6.594;2023-02-13T07:11:37;29.20;;;14.68;;
52432;SDS011;38352;53.244;6.594;2023-02-13T07:14:05;29.75;;;15.52;;
52432;SDS011;38352;53.244;6.594;2023-02-13T07:16:32;30.25;;;16.02;;
52432;SDS011;38352;53.244;6.594;2023-02-13T07:18:58;29.67;;;16.20;;
52432;SDS011;38352;53.244;6.594;2023-02-13T07:21:24;32.28;;;15.70;;
52432;SDS011;38352;53.244;6.594;2023-02-13T07:23:50;29.98;;;15.00;;
52432;SDS011;38352;53.244;6.594;2023-02-13T07:26:16;31.23;;;15.48;;
52432;SDS011;38352;53.244;6.594;2023-02-13T07:28:43;26.17;;;13.85;;
52432;SDS011;38352;53.244;6.594;2023-02-13T07:31:09;30.65;;;16.13;;
52432;SDS011;38352;53.244;6.594;2023-02-13T07:33:35;29.38;;;15.55;;
52432;SDS011;38352;53.244;6.594;2023-02-13T07:36:02;28.15;;;15.52;;
52432;SDS011;38352;53.244;6.594;2023-02-13T07:38:29;30.50;;;15.60;;
52432;SDS011;38352;53.244;6.594;2023-02-13T07:40:58;28.58;;;14.48;;
52432;SDS011;38352;53.244;6.594;2023-02-13T07:43:24;26.63;;;14.73;;
52432;SDS011;38352;53.244;6.594;2023-02-13T07:45:51;30.48;;;15.55;;
52432;SDS011;38352;53.244;6.594;2023-02-13T07:48:20;30.70;;;15.30;;
52432;SDS011;38352;53.244;6.594;2023-02-13T07:50:47;31.33;;;16.10;;
52432;SDS011;38352;53.244;6.594;2023-02-13T07:53:13;28.63;;;16.02;;
52432;SDS011;38352;53.244;6.594;2023-02-13T07:55:39;30.05;;;15.32;;
52432;SDS011;38352;53.244;6.594;2023-02-13T07:58:05;29.33;;;15.38;;
52432;SDS011;38352;53.244;6.594;2023-02-13T08:00:31;29.30;;;14.70;;
52432;SDS011;38352;53.244;6.594;2023-02-13T08:02:58;27.17;;;14.65;;
52432;SDS011;38352;53.244;6.594;2023-02-13T08:05:24;28.60;;;14.27;;
52432;SDS011;38352;53.244;6.594;2023-02-13T08:07:50;28.70;;;13.95;;
52432;SDS011;38352;53.244;6.594;2023-02-13T08:10:16;27.48;;;14.07;;
52432;SDS011;38352;53.244;6.594;2023-02-13T08:13:02;27.92;;;14.75;;
52432;SDS011;38352;53.244;6.594;2023-02-13T08:15:28;28.55;;;14.98;;
52432;SDS011;38352;53.244;6.594;2023-02-13T08:17:54;28.55;;;15.38;;
52432;SDS011;38352;53.244;6.594;2023-02-13T08:20:20;28.67;;;14.52;;
52432;SDS011;38352;53.244;6.594;2023-02-13T08:22:48;27.63;;;14.10;;
52432;SDS011;38352;53.244;6.594;2023-02-13T08:25:14;28.25;;;13.80;;
52432;SDS011;38352;53.244;6.594;2023-02-13T08:27:41;30.85;;;15.52;;
52432;SDS011;38352;53.244;6.594;2023-02-13T08:30:07;30.00;;;15.25;;
52432;SDS011;38352;53.244;6.594;2023-02-13T08:32:34;30.48;;;15.38;;
52432;SDS011;38352;53.244;6.594;2023-02-13T08:35:00;29.33;;;15.75;;
52432;SDS011;38352;53.244;6.594;2023-02-13T08:37:26;28.95;;;14.77;;
52432;SDS011;38352;53.244;6.594;2023-02-13T08:39:52;25.45;;;14.10;;
52432;SDS011;38352;53.244;6.594;2023-02-13T08:42:18;32.75;;;15.48;;
52432;SDS011;38352;53.244;6.594;2023-02-13T08:44:44;28.67;;;14.20;;
52432;SDS011;38352;53.244;6.594;2023-02-13T08:47:10;29.52;;;15.57;;
52432;SDS011;38352;53.244;6.594;2023-02-13T08:49:36;30.27;;;15.23;;
52432;SDS011;38352;53.244;6.594;2023-02-13T08:52:02;29.70;;;15.18;;
52432;SDS011;38352;53.244;6.594;2023-02-13T08:54:29;28.02;;;14.85;;
52432;SDS011;38352;53.244;6.594;2023-02-13T08:56:57;28.92;;;14.60;;
52432;SDS011;38352;53.244;6.594;2023-02-13T08:59:23;26.90;;;14.00;;
52432;SDS011;38352;53.244;6.594;2023-02-13T09:01:49;27.08;;;14.00;;
52432;SDS011;38352;53.244;6.594;2023-02-13T09:04:15;30.83;;;15.70;;
52432;SDS011;38352;53.244;6.594;2023-02-13T09:06:42;27.55;;;14.20;;
52432;SDS011;38352;53.244;6.594;2023-02-13T09:09:08;29.65;;;14.70;;
52432;SDS011;38352;53.244;6.594;2023-02-13T09:11:35;27.02;;;14.52;;
52432;SDS011;38352;53.244;6.594;2023-02-13T09:14:01;28.23;;;15.40;;
52432;SDS011;38352;53.244;6.594;2023-02-13T09:16:27;26.25;;;13.25;;
52432;SDS011;38352;53.244;6.594;2023-02-13T09:18:53;31.40;;;15.82;;
52432;SDS011;38352;53.244;6.594;2023-02-13T09:21:20;30.67;;;15.90;;
52432;SDS011;38352;53.244;6.594;2023-02-13T09:23:49;29.90;;;15.35;;
52432;SDS011;38352;53.244;6.594;2023-02-13T09:26:17;32.53;;;14.90;;
52432;SDS011;38352;53.244;6.594;2023-02-13T09:28:43;29.13;;;16.17;;
52432;SDS011;38352;53.244;6.594;2023-02-13T09:33:35;29.75;;;14.73;;
52432;SDS011;38352;53.244;6.594;2023-02-13T09:36:23;27.58;;;14.52;;
52432;SDS011;38352;53.244;6.594;2023-02-13T09:38:52;27.73;;;14.63;;
52432;SDS011;38352;53.244;6.594;2023-02-13T09:41:22;33.33;;;16.23;;
52432;SDS011;38352;53.244;6.594;2023-02-13T09:46:27;28.15;;;15.25;;
52432;SDS011;38352;53.244;6.594;2023-02-13T09:48:54;30.27;;;15.50;;
52432;SDS011;38352;53.244;6.594;2023-02-13T09:51:22;27.95;;;14.93;;
52432;SDS011;38352;53.244;6.594;2023-02-13T09:54:12;28.08;;;15.75;;
52432;SDS011;38352;53.244;6.594;2023-02-13T09:59:05;28.90;;;14.95;;
52432;SDS011;38352;53.244;6.594;2023-02-13T10:01:43;26.33;;;14.57;;
52432;SDS011;38352;53.244;6.594;2023-02-13T10:04:14;31.33;;;15.77;;
52432;SDS011;38352;53.244;6.594;2023-02-13T10:06:43;31.30;;;15.07;;
52432;SDS011;38352;53.244;6.594;2023-02-13T10:09:37;26.17;;;13.98;;
52432;SDS011;38352;53.244;6.594;2023-02-13T10:17:35;29.80;;;15.70;;
52432;SDS011;38352;53.244;6.594;2023-02-13T10:20:07;30.83;;;15.10;;
52432;SDS011;38352;53.244;6.594;2023-02-13T10:22:42;30.52;;;14.93;;
52432;SDS011;38352;53.244;6.594;2023-02-13T10:27:43;28.20;;;14.52;;
52432;SDS011;38352;53.244;6.594;2023-02-13T10:32:48;29.77;;;14.55;;
52432;SDS011;38352;53.244;6.594;2023-02-13T10:35:26;29.00;;;15.50;;
52432;SDS011;38352;53.244;6.594;2023-02-13T10:37:55;29.10;;;14.38;;
52432;SDS011;38352;53.244;6.594;2023-02-13T10:40:23;29.02;;;14.65;;
52432;SDS011;38352;53.244;6.594;2023-02-13T10:45:32;29.30;;;15.00;;
52432;SDS011;38352;53.244;6.594;2023-02-13T11:00:34;26.90;;;14.68;;
52432;SDS011;38352;53.244;6.594;2023-02-13T11:03:03;29.90;;;14.70;;
52432;SDS011;38352;53.244;6.594;2023-02-13T11:05:30;29.63;;;14.30;;
52432;SDS011;38352;53.244;6.594;2023-02-13T11:07:56;31.40;;;15.95;;
52432;SDS011;38352;53.244;6.594;2023-02-13T11:10:24;27.40;;;14.75;;
52432;SDS011;38352;53.244;6.594;2023-02-13T11:12:50;29.58;;;16.45;;
52432;SDS011;38352;53.244;6.594;2023-02-13T11:17:50;26.58;;;14.20;;
52432;SDS011;38352;53.244;6.594;2023-02-13T11:22:49;29.27;;;15.30;;
52432;SDS011;38352;53.244;6.594;2023-02-13T11:25:25;28.77;;;15.65;;
52432;SDS011;38352;53.244;6.594;2023-02-13T11:28:03;28.00;;;14.57;;
52432;SDS011;38352;53.244;6.594;2023-02-13T11:30:32;28.38;;;13.85;;
52432;SDS011;38352;53.244;6.594;2023-02-13T11:33:00;26.55;;;13.45;;
52432;SDS011;38352;53.244;6.594;2023-02-13T11:35:31;26.02;;;14.27;;
52432;SDS011;38352;53.244;6.594;2023-02-13T11:43:18;27.15;;;14.15;;
52432;SDS011;38352;53.244;6.594;2023-02-13T11:45:44;26.85;;;13.88;;
52432;SDS011;38352;53.244;6.594;2023-02-13T11:48:19;29.35;;;14.63;;
52432;SDS011;38352;53.244;6.594;2023-02-13T11:50:49;26.65;;;13.48;;
52432;SDS011;38352;53.244;6.594;2023-02-13T11:53:20;25.88;;;13.05;;
52432;SDS011;38352;53.244;6.594;2023-02-13T11:58:47;26.33;;;13.77;;
52432;SDS011;38352;53.244;6.594;2023-02-13T12:01:26;27.42;;;13.70;;
52432;SDS011;38352;53.244;6.594;2023-02-13T12:06:32;27.00;;;13.75;;
52432;SDS011;38352;53.244;6.594;2023-02-13T12:09:04;28.30;;;14.23;;
52432;SDS011;38352;53.244;6.594;2023-02-13T12:11:35;26.52;;;14.15;;
52432;SDS011;38352;53.244;6.594;2023-02-13T12:14:03;27.23;;;15.20;;
52432;SDS011;38352;53.244;6.594;2023-02-13T12:18:59;26.70;;;14.15;;
52432;SDS011;38352;53.244;6.594;2023-02-13T12:21:39;27.42;;;13.90;;
52432;SDS011;38352;53.244;6.594;2023-02-13T12:26:40;25.70;;;13.32;;
52432;SDS011;38352;53.244;6.594;2023-02-13T12:39:19;25.38;;;13.43;;
52432;SDS011;38352;53.244;6.594;2023-02-13T12:47:12;26.52;;;13.70;;
52432;SDS011;38352;53.244;6.594;2023-02-13T12:57:16;26.70;;;13.63;;
52432;SDS011;38352;53.244;6.594;2023-02-13T13:18:04;26.00;;;14.02;;
52432;SDS011;38352;53.244;6.594;2023-02-13T13:28:29;24.35;;;13.43;;
52432;SDS011;38352;53.244;6.594;2023-02-13T13:30:57;24.20;;;13.80;;
52432;SDS011;38352;53.244;6.594;2023-02-13T13:33:24;27.38;;;13.50;;
52432;SDS011;38352;53.244;6.594;2023-02-13T13:35:54;28.73;;;13.38;;
52432;SDS011;38352;53.244;6.594;2023-02-13T13:39:13;25.17;;;14.50;;
52432;SDS011;38352;53.244;6.594;2023-02-13T13:41:25;23.67;;;13.95;;
52432;SDS011;38352;53.244;6.594;2023-02-13T13:44:09;28.52;;;14.20;;
52432;SDS011;38352;53.244;6.594;2023-02-13T13:46:50;27.00;;;14.38;;
52432;SDS011;38352;53.244;6.594;2023-02-13T13:54:49;26.13;;;14.05;;
52432;SDS011;38352;53.244;6.594;2023-02-13T13:57:19;27.60;;;13.38;;
52432;SDS011;38352;53.244;6.594;2023-02-13T14:07:26;24.80;;;13.80;;
52432;SDS011;38352;53.244;6.594;2023-02-13T14:09:58;26.65;;;13.70;;
52432;SDS011;38352;53.244;6.594;2023-02-13T14:14:50;27.65;;;14.15;;
52432;SDS011;38352;53.244;6.594;2023-02-13T14:18:02;26.17;;;14.10;;
52432;SDS011;38352;53.244;6.594;2023-02-13T14:20:11;30.35;;;14.40;;
52432;SDS011;38352;53.244;6.594;2023-02-13T14:22:41;28.50;;;14.30;;
52432;SDS011;38352;53.244;6.594;2023-02-13T14:25:23;27.95;;;13.57;;
52432;SDS011;38352;53.244;6.594;2023-02-13T14:27:57;28.95;;;13.88;;
52432;SDS011;38352;53.244;6.594;2023-02-13T14:30:28;28.25;;;14.30;;
52432;SDS011;38352;53.244;6.594;2023-02-13T14:32:56;28.42;;;14.98;;
52432;SDS011;38352;53.244;6.594;2023-02-13T14:35:23;29.60;;;14.55;;
52432;SDS011;38352;53.244;6.594;2023-02-13T14:37:54;27.38;;;14.07;;
52432;SDS011;38352;53.244;6.594;2023-02-13T14:42:56;29.85;;;14.90;;
52432;SDS011;38352;53.244;6.594;2023-02-13T14:45:30;31.60;;;15.85;;
52432;SDS011;38352;53.244;6.594;2023-02-13T14:47:57;27.02;;;14.70;;
52432;SDS011;38352;53.244;6.594;2023-02-13T14:50:28;32.78;;;14.50;;
52432;SDS011;38352;53.244;6.594;2023-02-13T14:52:56;31.45;;;16.40;;
52432;SDS011;38352;53.244;6.594;2023-02-13T14:58:04;35.53;;;18.55;;
52432;SDS011;38352;53.244;6.594;2023-02-13T15:03:22;32.13;;;16.08;;
52432;SDS011;38352;53.244;6.594;2023-02-13T15:05:49;30.17;;;14.38;;
52432;SDS011;38352;53.244;6.594;2023-02-13T15:08:17;30.90;;;15.75;;
52432;SDS011;38352;53.244;6.594;2023-02-13T15:10:45;27.48;;;14.48;;
52432;SDS011;38352;53.244;6.594;2023-02-13T15:15:42;29.05;;;16.13;;
52432;SDS011;38352;53.244;6.594;2023-02-13T15:18:26;30.13;;;14.63;;
52432;SDS011;38352;53.244;6.594;2023-02-13T15:20:54;28.10;;;14.85;;
52432;SDS011;38352;53.244;6.594;2023-02-13T15:23:26;31.65;;;15.80;;
52432;SDS011;38352;53.244;6.594;2023-02-13T15:26:16;28.77;;;15.80;;
52432;SDS011;38352;53.244;6.594;2023-02-13T15:28:42;28.23;;;15.48;;
52432;SDS011;38352;53.244;6.594;2023-02-13T15:31:23;33.45;;;16.55;;
52432;SDS011;38352;53.244;6.594;2023-02-13T15:33:50;29.42;;;15.95;;
52432;SDS011;38352;53.244;6.594;2023-02-13T15:36:17;29.42;;;15.82;;
52432;SDS011;38352;53.244;6.594;2023-02-13T15:38:44;28.13;;;15.98;;
52432;SDS011;38352;53.244;6.594;2023-02-13T15:41:20;29.20;;;15.93;;
52432;SDS011;38352;53.244;6.594;2023-02-13T15:43:48;34.92;;;16.83;;
52432;SDS011;38352;53.244;6.594;2023-02-13T15:48:44;34.72;;;15.88;;
52432;SDS011;38352;53.244;6.594;2023-02-13T15:51:17;27.02;;;15.45;;
52432;SDS011;38352;53.244;6.594;2023-02-13T15:53:50;32.57;;;15.57;;
52432;SDS011;38352;53.244;6.594;2023-02-13T15:56:17;30.15;;;15.30;;
52432;SDS011;38352;53.244;6.594;2023-02-13T15:58:43;28.05;;;15.48;;
52432;SDS011;38352;53.244;6.594;2023-02-13T16:01:11;31.35;;;15.88;;
52432;SDS011;38352;53.244;6.594;2023-02-13T16:03:38;31.33;;;16.75;;
52432;SDS011;38352;53.244;6.594;2023-02-13T16:06:05;34.65;;;16.52;;
52432;SDS011;38352;53.244;6.594;2023-02-13T16:13:34;32.30;;;16.23;;
52432;SDS011;38352;53.244;6.594;2023-02-13T16:16:01;29.38;;;16.25;;
52432;SDS011;38352;53.244;6.594;2023-02-13T16:18:33;30.17;;;15.45;;
52432;SDS011;38352;53.244;6.594;2023-02-13T16:20:59;31.92;;;16.52;;
52432;SDS011;38352;53.244;6.594;2023-02-13T16:23:28;33.40;;;16.35;;
52432;SDS011;38352;53.244;6.594;2023-02-13T16:25:58;31.63;;;16.52;;
52432;SDS011;38352;53.244;6.594;2023-02-13T16:28:25;30.40;;;16.27;;
52432;SDS011;38352;53.244;6.594;2023-02-13T16:30:59;32.90;;;16.80;;
52432;SDS011;38352;53.244;6.594;2023-02-13T16:35:53;30.70;;;15.80;;
52432;SDS011;38352;53.244;6.594;2023-02-13T16:40:49;33.38;;;16.30;;
52432;SDS011;38352;53.244;6.594;2023-02-13T16:43:35;34.83;;;17.67;;
52432;SDS011;38352;53.244;6.594;2023-02-13T16:48:42;35.83;;;17.02;;
52432;SDS011;38352;53.244;6.594;2023-02-13T16:51:09;47.50;;;24.23;;
52432;SDS011;38352;53.244;6.594;2023-02-13T16:53:36;37.85;;;17.60;;
52432;SDS011;38352;53.244;6.594;2023-02-13T16:56:06;32.35;;;17.40;;
52432;SDS011;38352;53.244;6.594;2023-02-13T16:58:33;32.55;;;16.58;;
52432;SDS011;38352;53.244;6.594;2023-02-13T17:00:59;36.55;;;17.40;;
52432;SDS011;38352;53.244;6.594;2023-02-13T17:03:27;35.97;;;17.60;;
52432;SDS011;38352;53.244;6.594;2023-02-13T17:05:53;32.05;;;17.13;;
52432;SDS011;38352;53.244;6.594;2023-02-13T17:08:20;33.67;;;16.05;;
52432;SDS011;38352;53.244;6.594;2023-02-13T17:11:05;32.72;;;16.85;;
52432;SDS011;38352;53.244;6.594;2023-02-13T17:13:32;35.75;;;17.45;;
52432;SDS011;38352;53.244;6.594;2023-02-13T17:15:58;32.80;;;17.25;;
52432;SDS011;38352;53.244;6.594;2023-02-13T17:18:27;34.25;;;17.35;;
52432;SDS011;38352;53.244;6.594;2023-02-13T17:20:54;33.78;;;16.92;;
52432;SDS011;38352;53.244;6.594;2023-02-13T17:23:21;34.97;;;18.15;;
52432;SDS011;38352;53.244;6.594;2023-02-13T17:25:48;38.40;;;17.38;;
52432;SDS011;38352;53.244;6.594;2023-02-13T17:28:16;38.13;;;17.40;;
52432;SDS011;38352;53.244;6.594;2023-02-13T17:30:45;34.10;;;15.88;;
52432;SDS011;38352;53.244;6.594;2023-02-13T17:33:13;31.80;;;16.90;;
52432;SDS011;38352;53.244;6.594;2023-02-13T17:35:39;36.00;;;17.95;;
52432;SDS011;38352;53.244;6.594;2023-02-13T17:38:05;35.80;;;18.95;;
52432;SDS011;38352;53.244;6.594;2023-02-13T17:40:33;35.28;;;17.60;;
52432;SDS011;38352;53.244;6.594;2023-02-13T17:42:59;35.03;;;18.13;;
52432;SDS011;38352;53.244;6.594;2023-02-13T17:45:26;35.60;;;17.05;;
52432;SDS011;38352;53.244;6.594;2023-02-13T17:47:53;35.28;;;16.70;;